sensor_id;sensor_type;location;lat;lon;timestamp;temperature;humidity
6740;DHT22;3407;49.882;10.920;2024-03-22T00:02:28;5.60;1.00
6740;DHT22;3407;49.882;10.920;2024-03-22T00:07:23;5.60;1.00
6740;DHT22;3407;49.882;10.920;2024-03-22T00:12:19;5.50;1.00
6740;DHT22;3407;49.882;10.920;2024-03-22T00:17:14;5.40;23.10
6740;DHT22;3407;49.882;10.920;2024-03-22T00:22:10;5.20;99.90
6740;DHT22;3407;49.882;10.920;2024-03-22T00:27:05;5.10;99.90
6740;DHT22;3407;49.882;10.920;2024-03-22T00:32:01;5.10;99.90
6740;DHT22;3407;49.882;10.920;2024-03-22T00:36:56;5.00;99.90
6740;DHT22;3407;49.882;10.920;2024-03-22T00:41:52;5.00;99.90
6740;DHT22;3407;49.882;10.920;2024-03-22T00:46:47;5.00;99.90
6740;DHT22;3407;49.882;10.920;2024-03-22T00:51:43;4.90;99.90
6740;DHT22;3407;49.882;10.920;2024-03-22T00:56:40;4.80;99.90
6740;DHT22;3407;49.882;10.920;2024-03-22T01:01:35;4.90;1.00
6740;DHT22;3407;49.882;10.920;2024-03-22T01:06:31;4.80;1.00
6740;DHT22;3407;49.882;10.920;2024-03-22T01:11:26;4.90;1.00
6740;DHT22;3407;49.882;10.920;2024-03-22T01:16:22;4.90;1.00
6740;DHT22;3407;49.882;10.920;2024-03-22T01:21:17;4.90;99.90
6740;DHT22;3407;49.882;10.920;2024-03-22T01:26:13;4.80;99.90
6740;DHT22;3407;49.882;10.920;2024-03-22T01:31:08;4.60;99.90
6740;DHT22;3407;49.882;10.920;2024-03-22T01:36:04;4.80;99.90
6740;DHT22;3407;49.882;10.920;2024-03-22T01:41:00;4.20;99.90
6740;DHT22;3407;49.882;10.920;2024-03-22T01:45:56;4.20;1.00
6740;DHT22;3407;49.882;10.920;2024-03-22T01:50:52;4.30;1.00
6740;DHT22;3407;49.882;10.920;2024-03-22T01:55:47;4.30;1.00
6740;DHT22;3407;49.882;10.920;2024-03-22T02:00:43;4.40;1.00
6740;DHT22;3407;49.882;10.920;2024-03-22T02:05:39;4.40;1.00
6740;DHT22;3407;49.882;10.920;2024-03-22T02:10:35;4.30;1.00
6740;DHT22;3407;49.882;10.920;2024-03-22T02:15:30;4.30;1.00
6740;DHT22;3407;49.882;10.920;2024-03-22T02:20:26;4.30;1.00
6740;DHT22;3407;49.882;10.920;2024-03-22T02:25:22;4.20;1.00
6740;DHT22;3407;49.882;10.920;2024-03-22T02:30:18;4.10;1.00
6740;DHT22;3407;49.882;10.920;2024-03-22T02:35:14;3.80;1.00
6740;DHT22;3407;49.882;10.920;2024-03-22T02:40:12;3.90;1.00
6740;DHT22;3407;49.882;10.920;2024-03-22T02:45:09;3.90;1.00
6740;DHT22;3407;49.882;10.920;2024-03-22T02:50:05;3.90;1.00
6740;DHT22;3407;49.882;10.920;2024-03-22T02:55:01;3.70;1.00
6740;DHT22;3407;49.882;10.920;2024-03-22T02:59:59;3.60;1.00
6740;DHT22;3407;49.882;10.920;2024-03-22T03:04:55;3.60;1.00
6740;DHT22;3407;49.882;10.920;2024-03-22T03:09:50;3.70;1.00
6740;DHT22;3407;49.882;10.920;2024-03-22T03:14:46;3.70;1.00
6740;DHT22;3407;49.882;10.920;2024-03-22T03:19:41;3.70;1.00
6740;DHT22;3407;49.882;10.920;2024-03-22T03:24:36;3.70;1.00
6740;DHT22;3407;49.882;10.920;2024-03-22T03:29:32;3.70;1.00
6740;DHT22;3407;49.882;10.920;2024-03-22T03:34:28;3.70;1.00
6740;DHT22;3407;49.882;10.920;2024-03-22T03:39:23;3.70;1.00
6740;DHT22;3407;49.882;10.920;2024-03-22T03:44:19;3.90;1.00
6740;DHT22;3407;49.882;10.920;2024-03-22T03:49:14;3.90;1.00
6740;DHT22;3407;49.882;10.920;2024-03-22T03:54:10;3.80;99.90
6740;DHT22;3407;49.882;10.920;2024-03-22T03:59:05;3.70;99.90
6740;DHT22;3407;49.882;10.920;2024-03-22T04:04:03;3.70;99.90
6740;DHT22;3407;49.882;10.920;2024-03-22T04:08:58;3.70;1.00
6740;DHT22;3407;49.882;10.920;2024-03-22T04:13:54;3.80;1.00
6740;DHT22;3407;49.882;10.920;2024-03-22T04:18:50;3.80;1.00
6740;DHT22;3407;49.882;10.920;2024-03-22T04:23:45;3.80;1.00
6740;DHT22;3407;49.882;10.920;2024-03-22T04:28:41;3.90;1.00
6740;DHT22;3407;49.882;10.920;2024-03-22T04:33:37;3.80;1.00
6740;DHT22;3407;49.882;10.920;2024-03-22T04:38:33;3.80;1.00
6740;DHT22;3407;49.882;10.920;2024-03-22T04:43:29;3.80;1.00
6740;DHT22;3407;49.882;10.920;2024-03-22T04:48:24;3.60;1.00
6740;DHT22;3407;49.882;10.920;2024-03-22T04:53:20;3.60;1.00
6740;DHT22;3407;49.882;10.920;2024-03-22T04:58:18;3.60;1.00
6740;DHT22;3407;49.882;10.920;2024-03-22T05:03:15;3.50;1.00
6740;DHT22;3407;49.882;10.920;2024-03-22T05:08:11;3.50;1.00
6740;DHT22;3407;49.882;10.920;2024-03-22T05:13:07;3.60;1.00
6740;DHT22;3407;49.882;10.920;2024-03-22T05:18:03;3.60;1.00
6740;DHT22;3407;49.882;10.920;2024-03-22T05:22:58;3.70;1.00
6740;DHT22;3407;49.882;10.920;2024-03-22T05:27:54;3.70;1.00
6740;DHT22;3407;49.882;10.920;2024-03-22T05:32:49;3.60;1.00
6740;DHT22;3407;49.882;10.920;2024-03-22T05:37:45;3.60;1.00
6740;DHT22;3407;49.882;10.920;2024-03-22T05:42:42;3.60;1.00
6740;DHT22;3407;49.882;10.920;2024-03-22T05:47:37;3.70;1.00
6740;DHT22;3407;49.882;10.920;2024-03-22T05:52:33;3.80;1.00
6740;DHT22;3407;49.882;10.920;2024-03-22T05:57:29;4.10;1.00
6740;DHT22;3407;49.882;10.920;2024-03-22T06:02:25;4.40;1.00
6740;DHT22;3407;49.882;10.920;2024-03-22T06:07:20;4.70;1.00
6740;DHT22;3407;49.882;10.920;2024-03-22T06:12:16;5.00;1.00
6740;DHT22;3407;49.882;10.920;2024-03-22T06:17:11;5.30;99.90
6740;DHT22;3407;49.882;10.920;2024-03-22T06:22:07;5.40;9.70
6740;DHT22;3407;49.882;10.920;2024-03-22T06:27:02;5.40;99.90
6740;DHT22;3407;49.882;10.920;2024-03-22T06:31:58;5.40;99.90
6740;DHT22;3407;49.882;10.920;2024-03-22T06:36:53;5.50;1.00
6740;DHT22;3407;49.882;10.920;2024-03-22T06:41:49;5.60;1.00
6740;DHT22;3407;49.882;10.920;2024-03-22T06:46:44;5.70;1.00
6740;DHT22;3407;49.882;10.920;2024-03-22T06:51:40;5.80;1.00
6740;DHT22;3407;49.882;10.920;2024-03-22T06:56:35;6.00;1.00
6740;DHT22;3407;49.882;10.920;2024-03-22T07:01:31;6.20;1.00
6740;DHT22;3407;49.882;10.920;2024-03-22T07:06:26;6.40;1.00
6740;DHT22;3407;49.882;10.920;2024-03-22T07:11:22;6.60;1.00
6740;DHT22;3407;49.882;10.920;2024-03-22T07:16:19;6.90;1.00
6740;DHT22;3407;49.882;10.920;2024-03-22T07:21:14;7.10;99.90
6740;DHT22;3407;49.882;10.920;2024-03-22T07:26:10;7.40;99.90
6740;DHT22;3407;49.882;10.920;2024-03-22T07:31:05;7.70;1.00
6740;DHT22;3407;49.882;10.920;2024-03-22T07:36:04;8.00;1.00
6740;DHT22;3407;49.882;10.920;2024-03-22T07:41:00;8.40;1.00
6740;DHT22;3407;49.882;10.920;2024-03-22T07:45:56;8.80;99.90
6740;DHT22;3407;49.882;10.920;2024-03-22T07:50:58;9.50;1.00
6740;DHT22;3407;49.882;10.920;2024-03-22T07:55:54;13.20;1.00
6740;DHT22;3407;49.882;10.920;2024-03-22T08:00:49;15.90;99.90
6740;DHT22;3407;49.882;10.920;2024-03-22T08:05:46;18.20;99.90
6740;DHT22;3407;49.882;10.920;2024-03-22T08:10:41;17.90;99.90
6740;DHT22;3407;49.882;10.920;2024-03-22T08:15:37;18.20;99.90
6740;DHT22;3407;49.882;10.920;2024-03-22T08:20:33;19.50;99.90
6740;DHT22;3407;49.882;10.920;2024-03-22T08:25:29;20.50;99.90
6740;DHT22;3407;49.882;10.920;2024-03-22T08:30:25;22.20;99.90
6740;DHT22;3407;49.882;10.920;2024-03-22T08:35:21;23.60;99.90
6740;DHT22;3407;49.882;10.920;2024-03-22T08:40:16;24.60;99.90
6740;DHT22;3407;49.882;10.920;2024-03-22T08:45:12;25.20;99.90
6740;DHT22;3407;49.882;10.920;2024-03-22T08:50:08;25.60;99.90
6740;DHT22;3407;49.882;10.920;2024-03-22T08:55:04;26.60;99.90
6740;DHT22;3407;49.882;10.920;2024-03-22T09:00:01;26.20;99.90
6740;DHT22;3407;49.882;10.920;2024-03-22T09:04:57;23.30;99.90
6740;DHT22;3407;49.882;10.920;2024-03-22T09:09:52;22.10;99.90
6740;DHT22;3407;49.882;10.920;2024-03-22T09:14:48;21.30;99.90
6740;DHT22;3407;49.882;10.920;2024-03-22T09:19:43;20.00;99.90
6740;DHT22;3407;49.882;10.920;2024-03-22T09:24:39;18.80;99.90
6740;DHT22;3407;49.882;10.920;2024-03-22T09:29:35;18.40;99.90
6740;DHT22;3407;49.882;10.920;2024-03-22T09:34:31;18.40;99.90
6740;DHT22;3407;49.882;10.920;2024-03-22T09:39:27;18.60;99.90
6740;DHT22;3407;49.882;10.920;2024-03-22T09:44:23;18.50;99.90
6740;DHT22;3407;49.882;10.920;2024-03-22T09:49:21;18.10;99.90
6740;DHT22;3407;49.882;10.920;2024-03-22T09:54:18;17.20;99.90
6740;DHT22;3407;49.882;10.920;2024-03-22T09:59:14;16.50;99.90
6740;DHT22;3407;49.882;10.920;2024-03-22T10:04:09;16.20;99.90
6740;DHT22;3407;49.882;10.920;2024-03-22T10:09:05;16.60;99.90
6740;DHT22;3407;49.882;10.920;2024-03-22T10:14:00;18.00;99.90
6740;DHT22;3407;49.882;10.920;2024-03-22T10:18:58;20.60;99.90
6740;DHT22;3407;49.882;10.920;2024-03-22T10:23:54;21.90;99.90
6740;DHT22;3407;49.882;10.920;2024-03-22T10:28:50;23.10;99.90
6740;DHT22;3407;49.882;10.920;2024-03-22T10:33:45;23.70;99.90
6740;DHT22;3407;49.882;10.920;2024-03-22T10:38:42;23.90;99.90
6740;DHT22;3407;49.882;10.920;2024-03-22T10:43:39;24.60;99.90
6740;DHT22;3407;49.882;10.920;2024-03-22T10:48:35;25.20;99.90
6740;DHT22;3407;49.882;10.920;2024-03-22T10:53:32;25.50;99.90
6740;DHT22;3407;49.882;10.920;2024-03-22T10:58:28;25.60;99.90
6740;DHT22;3407;49.882;10.920;2024-03-22T11:03:25;25.10;99.90
6740;DHT22;3407;49.882;10.920;2024-03-22T11:08:28;25.10;99.90
6740;DHT22;3407;49.882;10.920;2024-03-22T11:13:24;25.40;99.90
6740;DHT22;3407;49.882;10.920;2024-03-22T11:18:19;24.80;99.90
6740;DHT22;3407;49.882;10.920;2024-03-22T11:23:15;24.30;99.90
6740;DHT22;3407;49.882;10.920;2024-03-22T11:28:10;24.40;99.90
6740;DHT22;3407;49.882;10.920;2024-03-22T11:33:06;24.30;99.90
6740;DHT22;3407;49.882;10.920;2024-03-22T11:38:01;24.00;99.90
6740;DHT22;3407;49.882;10.920;2024-03-22T11:43:00;25.10;99.90
6740;DHT22;3407;49.882;10.920;2024-03-22T11:47:57;26.90;99.90
6740;DHT22;3407;49.882;10.920;2024-03-22T11:52:56;26.90;98.10
6740;DHT22;3407;49.882;10.920;2024-03-22T11:57:52;26.00;98.20
6740;DHT22;3407;49.882;10.920;2024-03-22T12:02:50;25.50;98.60
6740;DHT22;3407;49.882;10.920;2024-03-22T12:07:45;25.30;98.80
6740;DHT22;3407;49.882;10.920;2024-03-22T12:12:41;24.50;97.70
6740;DHT22;3407;49.882;10.920;2024-03-22T12:17:36;23.60;99.10
6740;DHT22;3407;49.882;10.920;2024-03-22T12:22:32;23.50;99.10
6740;DHT22;3407;49.882;10.920;2024-03-22T12:27:28;23.30;99.20
6740;DHT22;3407;49.882;10.920;2024-03-22T12:32:24;23.20;98.50
6740;DHT22;3407;49.882;10.920;2024-03-22T12:37:20;23.40;98.50
6740;DHT22;3407;49.882;10.920;2024-03-22T12:42:15;23.50;98.40
6740;DHT22;3407;49.882;10.920;2024-03-22T12:47:11;23.60;98.40
6740;DHT22;3407;49.882;10.920;2024-03-22T12:52:07;22.90;98.70
6740;DHT22;3407;49.882;10.920;2024-03-22T12:57:02;22.40;98.50
6740;DHT22;3407;49.882;10.920;2024-03-22T13:01:58;22.10;98.90
6740;DHT22;3407;49.882;10.920;2024-03-22T13:06:54;21.60;99.90
6740;DHT22;3407;49.882;10.920;2024-03-22T13:11:50;21.10;98.90
6740;DHT22;3407;49.882;10.920;2024-03-22T13:16:46;20.90;99.90
6740;DHT22;3407;49.882;10.920;2024-03-22T13:21:42;20.70;99.00
6740;DHT22;3407;49.882;10.920;2024-03-22T13:26:43;20.70;99.90
6740;DHT22;3407;49.882;10.920;2024-03-22T13:31:38;21.30;99.90
6740;DHT22;3407;49.882;10.920;2024-03-22T13:36:34;21.60;99.90
6740;DHT22;3407;49.882;10.920;2024-03-22T13:41:32;22.10;99.90
6740;DHT22;3407;49.882;10.920;2024-03-22T13:46:27;22.60;99.90
6740;DHT22;3407;49.882;10.920;2024-03-22T13:51:22;22.50;99.70
6740;DHT22;3407;49.882;10.920;2024-03-22T13:56:20;22.00;98.80
6740;DHT22;3407;49.882;10.920;2024-03-22T14:01:16;21.30;99.90
6740;DHT22;3407;49.882;10.920;2024-03-22T14:06:12;20.60;99.90
6740;DHT22;3407;49.882;10.920;2024-03-22T14:11:08;20.20;99.90
6740;DHT22;3407;49.882;10.920;2024-03-22T14:16:03;19.70;99.90
6740;DHT22;3407;49.882;10.920;2024-03-22T14:20:59;19.40;99.90
6740;DHT22;3407;49.882;10.920;2024-03-22T14:25:55;19.20;99.90
6740;DHT22;3407;49.882;10.920;2024-03-22T14:30:50;19.10;99.90
6740;DHT22;3407;49.882;10.920;2024-03-22T14:35:46;18.90;99.90
6740;DHT22;3407;49.882;10.920;2024-03-22T14:40:43;18.80;99.90
6740;DHT22;3407;49.882;10.920;2024-03-22T14:45:38;18.80;99.90
6740;DHT22;3407;49.882;10.920;2024-03-22T14:50:37;18.80;99.90
6740;DHT22;3407;49.882;10.920;2024-03-22T14:55:33;18.50;99.90
6740;DHT22;3407;49.882;10.920;2024-03-22T15:00:32;18.40;99.90
6740;DHT22;3407;49.882;10.920;2024-03-22T15:05:27;18.20;99.90
6740;DHT22;3407;49.882;10.920;2024-03-22T15:10:23;18.00;99.90
6740;DHT22;3407;49.882;10.920;2024-03-22T15:15:18;17.80;99.90
6740;DHT22;3407;49.882;10.920;2024-03-22T15:20:14;17.80;99.90
6740;DHT22;3407;49.882;10.920;2024-03-22T15:25:10;17.80;99.90
6740;DHT22;3407;49.882;10.920;2024-03-22T15:30:06;17.80;99.90
6740;DHT22;3407;49.882;10.920;2024-03-22T15:35:02;17.80;99.90
6740;DHT22;3407;49.882;10.920;2024-03-22T15:39:58;17.70;99.90
6740;DHT22;3407;49.882;10.920;2024-03-22T15:44:54;17.40;99.90
6740;DHT22;3407;49.882;10.920;2024-03-22T15:49:50;17.20;99.90
6740;DHT22;3407;49.882;10.920;2024-03-22T15:54:46;16.90;99.90
6740;DHT22;3407;49.882;10.920;2024-03-22T15:59:41;16.80;99.90
6740;DHT22;3407;49.882;10.920;2024-03-22T16:04:37;16.60;99.90
6740;DHT22;3407;49.882;10.920;2024-03-22T16:09:37;16.40;99.90
6740;DHT22;3407;49.882;10.920;2024-03-22T16:14:34;16.30;99.90
6740;DHT22;3407;49.882;10.920;2024-03-22T16:19:29;16.10;99.90
6740;DHT22;3407;49.882;10.920;2024-03-22T16:24:25;16.00;99.90
6740;DHT22;3407;49.882;10.920;2024-03-22T16:29:21;16.00;99.90
6740;DHT22;3407;49.882;10.920;2024-03-22T16:34:19;15.90;99.90
6740;DHT22;3407;49.882;10.920;2024-03-22T16:39:15;15.90;99.90
6740;DHT22;3407;49.882;10.920;2024-03-22T16:44:10;15.90;99.90
6740;DHT22;3407;49.882;10.920;2024-03-22T16:49:06;15.80;99.90
6740;DHT22;3407;49.882;10.920;2024-03-22T16:54:01;15.70;99.90
6740;DHT22;3407;49.882;10.920;2024-03-22T16:58:57;15.70;99.90
6740;DHT22;3407;49.882;10.920;2024-03-22T17:03:53;15.60;99.90
6740;DHT22;3407;49.882;10.920;2024-03-22T17:08:49;15.50;99.90
6740;DHT22;3407;49.882;10.920;2024-03-22T17:13:45;15.50;99.90
6740;DHT22;3407;49.882;10.920;2024-03-22T17:18:40;15.30;99.90
6740;DHT22;3407;49.882;10.920;2024-03-22T17:23:36;15.20;99.90
6740;DHT22;3407;49.882;10.920;2024-03-22T17:28:31;15.10;99.90
6740;DHT22;3407;49.882;10.920;2024-03-22T17:33:27;15.00;99.90
6740;DHT22;3407;49.882;10.920;2024-03-22T17:38:22;14.90;99.90
6740;DHT22;3407;49.882;10.920;2024-03-22T17:43:18;14.80;99.90
6740;DHT22;3407;49.882;10.920;2024-03-22T17:48:13;14.70;99.90
6740;DHT22;3407;49.882;10.920;2024-03-22T17:53:09;14.60;99.90
6740;DHT22;3407;49.882;10.920;2024-03-22T17:58:04;14.70;99.90
6740;DHT22;3407;49.882;10.920;2024-03-22T18:03:00;14.60;99.90
6740;DHT22;3407;49.882;10.920;2024-03-22T18:07:55;14.70;99.90
6740;DHT22;3407;49.882;10.920;2024-03-22T18:12:51;14.60;99.90
6740;DHT22;3407;49.882;10.920;2024-03-22T18:17:47;14.50;99.90
6740;DHT22;3407;49.882;10.920;2024-03-22T18:22:42;14.40;99.90
6740;DHT22;3407;49.882;10.920;2024-03-22T18:27:40;14.40;99.90
6740;DHT22;3407;49.882;10.920;2024-03-22T18:32:35;14.40;99.90
6740;DHT22;3407;49.882;10.920;2024-03-22T18:37:32;14.40;99.90
6740;DHT22;3407;49.882;10.920;2024-03-22T18:42:28;14.30;99.90
6740;DHT22;3407;49.882;10.920;2024-03-22T18:47:24;14.30;99.90
6740;DHT22;3407;49.882;10.920;2024-03-22T18:52:20;14.30;99.90
6740;DHT22;3407;49.882;10.920;2024-03-22T18:57:16;14.30;99.90
6740;DHT22;3407;49.882;10.920;2024-03-22T19:02:12;14.20;99.90
6740;DHT22;3407;49.882;10.920;2024-03-22T19:07:07;14.10;99.90
6740;DHT22;3407;49.882;10.920;2024-03-22T19:12:03;14.10;99.90
6740;DHT22;3407;49.882;10.920;2024-03-22T19:17:01;14.10;99.90
6740;DHT22;3407;49.882;10.920;2024-03-22T19:21:56;14.20;99.90
6740;DHT22;3407;49.882;10.920;2024-03-22T19:26:52;14.10;99.90
6740;DHT22;3407;49.882;10.920;2024-03-22T19:31:48;13.90;99.90
6740;DHT22;3407;49.882;10.920;2024-03-22T19:36:44;13.70;99.90
6740;DHT22;3407;49.882;10.920;2024-03-22T19:41:39;13.60;99.90
6740;DHT22;3407;49.882;10.920;2024-03-22T19:46:35;13.50;99.90
6740;DHT22;3407;49.882;10.920;2024-03-22T19:51:30;13.40;99.90
6740;DHT22;3407;49.882;10.920;2024-03-22T19:56:26;13.30;99.90
6740;DHT22;3407;49.882;10.920;2024-03-22T20:01:21;13.10;99.90
6740;DHT22;3407;49.882;10.920;2024-03-22T20:06:17;13.00;99.90
6740;DHT22;3407;49.882;10.920;2024-03-22T20:11:13;12.90;99.90
6740;DHT22;3407;49.882;10.920;2024-03-22T20:16:08;12.90;99.90
6740;DHT22;3407;49.882;10.920;2024-03-22T20:21:04;12.90;99.90
6740;DHT22;3407;49.882;10.920;2024-03-22T20:25:59;12.90;99.90
6740;DHT22;3407;49.882;10.920;2024-03-22T20:30:55;12.90;99.90
6740;DHT22;3407;49.882;10.920;2024-03-22T20:35:51;12.80;99.90
